Airfield :
LOGIN :

Register | Disclaimer

   EN    FR    IT 

 










Legend :    VFR   Marginal VFR   IFR   Intensive IFR   Very Intensive IFR
Visi :
Ceiling :
>= 8 km
>= 3000ft
5 to 8 km
1000 to 3000 ft
1500m to 5 km
500 to 1000 ft
800 to 1500m
200 to 500 ft
< 800m
< 200 ft
Symbols :   Thunderstorms  Fog  Heavy snow  Heavy precipitations  Wind > 20 kt
SIGMETs :     Misc.  Thunderstorms  Icing  Turbulence  Mountain Waves  Volcanic Ashes







- Airport Elevation : 505 ft
- IATA code : SXB
- Download approach charts


LFST - Strasbourg

CURRENT METAR :
  • 260700Z AUTO 26008KT 9999 BKN036 BKN044 BKN068 12/06 Q1020 NOSIG

EXPIRED METARs :
  • 260630Z AUTO 24004KT 9999 BKN038 BKN046 BKN060 11/06 Q1020 NOSIG
  • 260600Z AUTO 24006KT 9999 FEW035 BKN066 OVC086 11/05 Q1020 NOSIG
  • 260530Z AUTO 23009KT 9999 SCT042 BKN070 OVC086 11/06 Q1019 NOSIG
  • 260500Z AUTO 24007KT 9999 SCT043 BKN050 BKN090 11/06 Q1019 NOSIG
  • 260430Z AUTO 24005KT 9999 FEW043 BKN086 11/06 Q1019 TEMPO FEW025TCU

TAF TAF LFST
Valid from the 26 at 06:00 until the 27 at 06:00 UTC


260500Z 2606/2706 27010KT CAVOK
BECMG 2618/2621 31005KT
No reported NOTAMs for that airfield.



MET'MAP, your aeronautical weather chart ! - Copyright ORBIFLY December 2007 - Disclaimer

ORBIFLY MET'MAP TEAM :

Programming & Development : Alexandra Zaïnal
Concept & Development : Baudouin d'Aumeries
Co-Development & Prog : Marc-Olivier Méhu
Technical & hardware support : Manuel Goepfert

Contact : metmap@orbifly.com




SOURCES & CREDITS :

   NOAA